Time;durP1;ratioP1;P1;durP2;ratioP2;P2;SDS_P1;SDS_P2;PMS_P1;PMS_P2;Temp;Humidity;BMP_temperature;BMP_pressure;BME280_temperature;BME280_humidity;BME280_pressure;Samples;Min_cycle;Max_cycle;Signal;HPM_P1;HPM_P2
2022/10/07 00:00:56;;;;;;;15.15;4.38;;;;;;;12.48;78.96;102646.84;5023706;28;20045;-61
2022/10/07 00:03:43;;;;;;;11.18;4.25;;;;;;;12.48;79.19;102649.56;5035007;28;20496;-58
2022/10/07 00:06:14;;;;;;;13.98;4.15;;;;;;;12.48;79.46;102639.50;5034291;28;20048;-60
2022/10/07 00:08:45;;;;;;;16.02;4.65;;;;;;;12.46;79.69;102638.03;5020493;28;20135;-55
2022/10/07 00:11:19;;;;;;;14.57;4.47;;;;;;;12.43;79.16;102646.72;5031567;28;20419;-61
2022/10/07 00:13:51;;;;;;;14.73;4.53;;;;;;;12.37;79.93;102643.03;5031661;28;20045;-59
2022/10/07 00:16:28;;;;;;;13.35;4.40;;;;;;;12.32;79.87;102641.00;5018658;28;20133;-60
2022/10/07 00:19:00;;;;;;;16.13;4.28;;;;;;;12.29;79.91;102638.75;5030454;28;20080;-62
2022/10/07 00:21:29;;;;;;;15.38;4.20;;;;;;;12.27;80.19;102626.38;5035890;28;20045;-61
2022/10/07 00:23:57;;;;;;;14.20;4.50;;;;;;;12.19;80.88;102633.00;5032568;28;20044;-60
2022/10/07 00:26:27;;;;;;;16.35;5.10;;;;;;;12.15;81.03;102623.63;5035007;28;20037;-61
2022/10/07 00:28:55;;;;;;;14.23;4.72;;;;;;;12.10;81.02;102623.50;5035271;28;20038;-60
2022/10/07 00:31:24;;;;;;;11.57;4.28;;;;;;;12.08;81.84;102628.34;5035302;28;20044;-59
2022/10/07 00:33:53;;;;;;;13.65;4.22;;;;;;;12.10;81.77;102628.97;5017046;28;20045;-59
2022/10/07 00:36:23;;;;;;;15.00;4.60;;;;;;;12.14;81.52;102627.41;5050039;28;20445;-60
2022/10/07 00:39:02;;;;;;;20.63;4.78;;;;;;;12.09;81.63;102622.63;5032679;28;20053;-61
2022/10/07 00:41:36;;;;;;;14.93;4.57;;;;;;;12.03;81.93;102615.41;5040684;28;20041;-59
2022/10/07 00:44:26;;;;;;;13.25;4.32;;;;;;;12.06;82.10;102614.09;5016260;28;20045;-58
2022/10/07 00:46:54;;;;;;;10.88;4.10;;;;;;;12.08;82.34;102606.50;5016807;28;20042;-58
2022/10/07 00:49:22;;;;;;;14.07;4.60;;;;;;;12.09;82.18;102608.16;5029631;28;20503;-59
2022/10/07 00:51:51;;;;;;;11.60;4.05;;;;;;;12.09;82.10;102598.06;5027071;28;20042;-55
2022/10/07 00:54:19;;;;;;;19.13;5.03;;;;;;;12.12;81.88;102602.22;5032998;28;20099;-58
2022/10/07 00:56:49;;;;;;;15.85;4.85;;;;;;;12.10;81.81;102599.72;5017369;28;20393;-56
2022/10/07 00:59:18;;;;;;;15.65;4.65;;;;;;;12.07;81.46;102593.88;5031869;28;20042;-58
2022/10/07 01:01:46;;;;;;;15.00;4.68;;;;;;;12.03;81.81;102587.25;5034206;28;20056;-56
2022/10/07 01:04:16;;;;;;;15.13;4.82;;;;;;;12.00;82.30;102587.69;5035155;28;20080;-58
2022/10/07 01:06:44;;;;;;;13.48;4.50;;;;;;;11.99;82.56;102586.03;5033974;28;20044;-57
2022/10/07 01:09:13;;;;;;;16.80;4.82;;;;;;;11.99;82.84;102580.59;5030271;28;20508;-58
2022/10/07 01:11:57;;;;;;;15.48;4.40;;;;;;;12.01;82.46;102583.91;5041276;28;20034;-56
2022/10/07 01:14:45;;;;;;;14.43;4.40;;;;;;;11.99;82.39;102578.69;5028582;28;20124;-54
2022/10/07 01:17:21;;;;;;;13.90;4.30;;;;;;;11.99;81.73;102580.59;5053860;28;20046;-53
2022/10/07 01:20:25;;;;;;;16.70;4.30;;;;;;;11.97;81.75;102574.50;5027532;28;20045;-55
2022/10/07 01:23:07;;;;;;;15.32;4.38;;;;;;;11.96;82.49;102570.13;5023391;28;20046;-57
2022/10/07 01:25:48;;;;;;;16.13;4.40;;;;;;;11.92;81.98;102559.66;5024511;28;20042;-60
2022/10/07 01:28:22;;;;;;;13.10;4.63;;;;;;;11.90;82.45;102561.78;5017877;28;20037;-59
2022/10/07 01:30:55;;;;;;;17.50;4.80;;;;;;;11.89;82.68;102554.66;5033683;28;20385;-57
2022/10/07 01:33:27;;;;;;;16.95;4.50;;;;;;;11.89;82.35;102549.19;5037947;28;20053;-55
2022/10/07 01:35:58;;;;;;;13.52;4.25;;;;;;;11.87;82.36;102545.88;5018075;28;20045;-57
2022/10/07 01:38:25;;;;;;;13.32;4.70;;;;;;;11.87;82.36;102548.59;5046399;28;20045;-57
2022/10/07 01:41:03;;;;;;;14.52;4.75;;;;;;;11.88;82.88;102546.69;5043483;28;20487;-56
2022/10/07 01:43:32;;;;;;;15.55;4.72;;;;;;;11.85;82.86;102531.56;5018740;28;20029;-59
2022/10/07 01:46:00;;;;;;;16.73;4.57;;;;;;;11.86;83.28;102538.72;5040182;28;20040;-59
2022/10/07 01:48:30;;;;;;;13.75;4.32;;;;;;;11.84;82.92;102529.09;5015843;28;20072;-59
2022/10/07 01:51:00;;;;;;;16.90;4.60;;;;;;;11.83;83.21;102525.50;5032577;28;20045;-56
2022/10/07 01:53:52;;;;;;;10.98;4.35;;;;;;;11.80;82.55;102523.25;5034136;28;20037;-58
2022/10/07 01:56:36;;;;;;;13.32;4.20;;;;;;;11.78;82.75;102519.94;5016294;28;20041;-58
2022/10/07 01:59:31;;;;;;;15.18;4.35;;;;;;;11.73;82.97;102508.88;5031283;28;20123;-56
2022/10/07 02:02:15;;;;;;;17.27;4.65;;;;;;;11.70;83.04;102501.97;5028288;28;20042;-58
2022/10/07 02:04:49;;;;;;;17.13;5.07;;;;;;;11.66;83.44;102506.25;5034027;28;20052;-57
2022/10/07 02:07:22;;;;;;;16.05;4.85;;;;;;;11.60;83.32;102500.91;5033296;28;20047;-59
2022/10/07 02:10:02;;;;;;;16.50;4.90;;;;;;;11.55;83.92;102498.88;5016823;28;20140;-57
2022/10/07 02:12:34;;;;;;;17.55;4.85;;;;;;;11.54;83.97;102501.81;5029117;28;20029;-58
2022/10/07 02:15:23;;;;;;;12.40;4.07;;;;;;;11.54;84.94;102496.38;5005354;28;20044;-60
2022/10/07 02:17:54;;;;;;;14.75;4.35;;;;;;;11.52;84.07;102500.19;5011950;28;20491;-59
2022/10/07 02:20:26;;;;;;;14.18;5.00;;;;;;;11.52;84.57;102489.25;5014150;28;20049;-59
2022/10/07 02:22:56;;;;;;;13.20;4.28;;;;;;;11.57;84.35;102484.97;5013293;28;20054;-57
2022/10/07 02:25:26;;;;;;;13.82;4.18;;;;;;;11.59;84.32;102489.13;5030429;28;20045;-58
2022/10/07 02:27:54;;;;;;;14.18;4.60;;;;;;;11.57;84.77;102485.84;5015471;28;20042;-59
2022/10/07 02:30:23;;;;;;;14.27;4.60;;;;;;;11.57;84.50;102483.09;5035392;28;20119;-60
2022/10/07 02:32:53;;;;;;;15.57;4.88;;;;;;;11.51;84.39;102487.56;5032493;28;20128;-59
2022/10/07 02:35:27;;;;;;;13.98;4.53;;;;;;;11.49;84.60;102477.97;5031937;28;20117;-60
2022/10/07 02:37:57;;;;;;;13.38;4.53;;;;;;;11.49;85.16;102473.31;5032363;28;20048;-58
2022/10/07 02:40:30;;;;;;;13.88;4.57;;;;;;;11.46;84.83;102473.78;5012448;28;20045;-55
2022/10/07 02:43:16;;;;;;;13.10;4.38;;;;;;;11.45;84.75;102466.69;5021662;28;20038;-59
2022/10/07 02:45:57;;;;;;;16.52;4.95;;;;;;;11.48;84.95;102460.75;5000303;28;20053;-54
2022/10/07 02:48:32;;;;;;;14.95;4.80;;;;;;;11.46;84.90;102460.16;5014573;28;20045;-55
2022/10/07 02:51:03;;;;;;;17.70;5.10;;;;;;;11.45;85.40;102461.22;5030452;28;20046;-56
2022/10/07 02:53:32;;;;;;;13.00;4.68;;;;;;;11.42;85.72;102449.94;5012280;28;20034;-55
2022/10/07 02:56:02;;;;;;;14.50;4.22;;;;;;;11.44;85.56;102453.25;5016256;28;20041;-61
2022/10/07 02:58:30;;;;;;;19.95;5.38;;;;;;;11.44;85.38;102447.81;5015591;28;20068;-59
2022/10/07 03:01:00;;;;;;;17.05;4.95;;;;;;;11.46;84.81;102446.50;5031912;28;20067;-57
2022/10/07 03:03:29;;;;;;;13.63;4.82;;;;;;;11.47;85.13;102441.88;5032454;28;20037;-60
2022/10/07 03:06:03;;;;;;;17.58;4.82;;;;;;;11.45;85.28;102450.31;5032918;28;20045;-56
2022/10/07 03:08:32;;;;;;;16.42;4.90;;;;;;;11.44;85.25;102443.16;5016231;28;20038;-59
2022/10/07 03:11:01;;;;;;;11.85;4.18;;;;;;;11.43;85.44;102438.78;5032232;28;20045;-59
2022/10/07 03:13:30;;;;;;;14.07;4.88;;;;;;;11.44;85.43;102432.25;5004160;28;20558;-60
2022/10/07 03:16:04;;;;;;;15.57;4.93;;;;;;;11.43;84.97;102430.59;5016900;28;20083;-56
2022/10/07 03:18:32;;;;;;;14.00;4.00;;;;;;;11.46;85.41;102430.13;5008145;28;20047;-59
2022/10/07 03:21:15;;;;;;;13.52;4.25;;;;;;;11.42;84.98;102434.38;5033234;28;20065;-61
2022/10/07 03:23:48;;;;;;;15.55;4.63;;;;;;;11.36;85.23;102424.41;5031382;28;20057;-62
2022/10/07 03:26:18;;;;;;;19.77;4.97;;;;;;;11.35;85.71;102428.19;5032089;28;20037;-59
2022/10/07 03:28:47;;;;;;;17.73;4.70;;;;;;;11.36;85.75;102416.22;5032363;28;20038;-58
2022/10/07 03:31:15;;;;;;;13.27;3.95;;;;;;;11.39;85.57;102418.47;5033305;28;20033;-57
2022/10/07 03:33:47;;;;;;;14.45;4.50;;;;;;;11.39;85.61;102418.47;5023849;28;20045;-58
2022/10/07 03:36:18;;;;;;;19.13;5.15;;;;;;;11.36;85.04;102410.78;5052152;28;20108;-58
2022/10/07 03:38:47;;;;;;;14.88;4.97;;;;;;;11.30;85.42;102414.41;5031980;28;20057;-59
2022/10/07 03:41:15;;;;;;;13.85;4.53;;;;;;;11.28;85.44;102411.09;5036233;28;20113;-54
2022/10/07 03:43:44;;;;;;;16.45;4.60;;;;;;;11.30;85.26;102403.50;5021614;28;20076;-57
2022/10/07 03:46:18;;;;;;;16.08;4.38;;;;;;;11.30;85.56;102406.25;5048788;28;20042;-56
2022/10/07 03:48:46;;;;;;;16.95;5.03;;;;;;;11.28;85.08;102395.56;5041610;28;20128;-54
2022/10/07 03:51:14;;;;;;;14.40;4.53;;;;;;;11.26;85.97;102399.59;5035981;28;20113;-56
2022/10/07 03:53:42;;;;;;;12.90;4.07;;;;;;;11.24;85.71;102399.81;5035653;28;20068;-56
2022/10/07 03:56:10;;;;;;;13.60;4.38;;;;;;;11.24;85.62;102413.47;5037879;28;20037;-55
2022/10/07 03:58:41;;;;;;;13.75;4.10;;;;;;;11.23;85.63;102402.78;5026264;28;20136;-58
2022/10/07 04:01:13;;;;;;;14.63;4.75;;;;;;;11.24;85.83;102399.81;5033544;28;20053;-55
2022/10/07 04:03:52;;;;;;;16.27;4.45;;;;;;;11.25;85.64;102393.28;5033503;28;20041;-59
2022/10/07 04:06:19;;;;;;;12.85;4.13;;;;;;;11.20;85.78;102392.34;5017904;28;20064;-60
2022/10/07 04:08:51;;;;;;;17.48;4.97;;;;;;;11.16;86.20;102388.41;5033625;28;20419;-54
2022/10/07 04:11:20;;;;;;;17.75;4.78;;;;;;;11.16;86.14;102393.88;5035054;28;20404;-59
2022/10/07 04:13:50;;;;;;;17.58;4.35;;;;;;;11.16;86.09;102397.44;5034748;28;20037;-59
2022/10/07 04:16:19;;;;;;;15.88;4.13;;;;;;;11.14;86.23;102391.38;5015764;28;20079;-59
2022/10/07 04:18:47;;;;;;;14.40;4.63;;;;;;;11.12;86.03;102392.69;5033012;28;20065;-57
2022/10/07 04:21:15;;;;;;;12.30;4.57;;;;;;;11.11;86.17;102383.66;5035647;28;20041;-56
2022/10/07 04:23:43;;;;;;;16.52;4.45;;;;;;;11.10;86.02;102387.44;5034621;28;20081;-54
2022/10/07 04:26:12;;;;;;;14.48;4.32;;;;;;;11.08;85.89;102389.56;5017948;28;20037;-55
2022/10/07 04:28:47;;;;;;;15.80;4.60;;;;;;;11.04;86.18;102382.91;5031239;28;20037;-54
2022/10/07 04:31:21;;;;;;;19.63;4.97;;;;;;;10.98;86.40;102384.69;5026714;28;20496;-55
2022/10/07 04:33:57;;;;;;;14.20;4.28;;;;;;;10.95;86.77;102385.16;5034503;28;20037;-60
2022/10/07 04:36:31;;;;;;;18.42;5.05;;;;;;;10.93;87.01;102381.81;5018107;28;20050;-58
2022/10/07 04:39:08;;;;;;;14.43;4.72;;;;;;;10.92;86.68;102380.19;5014491;28;20095;-59
2022/10/07 04:41:41;;;;;;;20.75;4.97;;;;;;;10.94;87.13;102382.66;5035370;28;20129;-60
2022/10/07 04:44:15;;;;;;;13.80;4.30;;;;;;;10.94;86.80;102378.03;5021737;28;20391;-61
2022/10/07 04:46:52;;;;;;;15.00;4.80;;;;;;;10.93;86.70;102379.09;5033883;28;20065;-60
2022/10/07 04:49:21;;;;;;;13.07;4.07;;;;;;;10.93;86.63;102375.56;5035023;28;20033;-59
2022/10/07 04:51:48;;;;;;;15.23;4.25;;;;;;;10.88;87.14;102384.41;5035298;28;20045;-60
2022/10/07 04:54:16;;;;;;;15.57;4.85;;;;;;;10.87;86.92;102382.75;5036005;28;20033;-59
2022/10/07 04:56:49;;;;;;;16.58;4.57;;;;;;;10.87;87.47;102382.75;5034315;28;20041;-61
2022/10/07 04:59:19;;;;;;;16.77;4.90;;;;;;;10.89;86.97;102380.63;5021860;28;20476;-59
2022/10/07 05:01:53;;;;;;;16.48;4.32;;;;;;;10.93;86.98;102373.66;5034426;28;20530;-60
2022/10/07 05:04:22;;;;;;;18.23;4.93;;;;;;;10.93;86.73;102370.91;5021556;28;20083;-58
2022/10/07 05:06:51;;;;;;;16.90;4.80;;;;;;;10.93;86.38;102373.66;5030730;28;20045;-57
2022/10/07 05:09:19;;;;;;;18.02;4.78;;;;;;;10.90;87.01;102381.47;5035978;28;20053;-55
2022/10/07 05:11:48;;;;;;;15.95;4.65;;;;;;;10.88;86.71;102366.16;5018916;28;20548;-57
2022/10/07 05:14:20;;;;;;;15.35;4.82;;;;;;;10.85;86.83;102368.53;5017553;28;20129;-60
2022/10/07 05:16:50;;;;;;;15.15;5.07;;;;;;;10.86;86.81;102370.19;5030961;28;20080;-58
2022/10/07 05:19:20;;;;;;;14.52;4.20;;;;;;;10.84;87.21;102362.22;5009299;28;20467;-56
2022/10/07 05:21:48;;;;;;;12.93;4.10;;;;;;;10.86;87.03;102359.28;5034753;28;20071;-59
2022/10/07 05:24:16;;;;;;;13.50;4.55;;;;;;;10.86;86.88;102348.38;5030620;28;20038;-60
2022/10/07 05:26:43;;;;;;;16.25;4.93;;;;;;;10.85;86.82;102353.00;5025353;28;20544;-60
2022/10/07 05:29:11;;;;;;;13.48;3.97;;;;;;;10.84;87.18;102350.50;5034751;28;20038;-55
2022/10/07 05:31:50;;;;;;;13.13;4.82;;;;;;;10.83;87.34;102346.13;5019834;28;20060;-55
2022/10/07 05:34:22;;;;;;;18.38;4.90;;;;;;;10.80;87.45;102349.28;5035537;28;20048;-56
2022/10/07 05:36:49;;;;;;;18.30;4.82;;;;;;;10.78;87.55;102352.25;5047992;28;20492;-54
2022/10/07 05:39:17;;;;;;;12.70;4.07;;;;;;;10.78;87.17;102340.53;5033394;28;20060;-55
2022/10/07 05:42:05;;;;;;;14.07;4.57;;;;;;;10.78;87.16;102351.44;5033028;28;20504;-58
2022/10/07 05:44:39;;;;;;;16.27;4.95;;;;;;;10.78;86.87;102349.53;5032211;28;20120;-60
2022/10/07 05:47:07;;;;;;;12.63;4.63;;;;;;;10.75;87.60;102346.44;5032857;28;20044;-58
2022/10/07 05:49:36;;;;;;;14.70;4.38;;;;;;;10.73;87.54;102345.84;5011892;28;20526;-55
2022/10/07 05:52:06;;;;;;;14.93;5.57;;;;;;;10.73;87.87;102349.41;5032843;28;20042;-56
2022/10/07 05:54:35;;;;;;;13.13;4.25;;;;;;;10.73;87.50;102349.41;5033216;28;20045;-58
2022/10/07 05:57:03;;;;;;;16.35;4.53;;;;;;;10.74;87.33;102351.06;4350894;28;10000694;-57
2022/10/07 05:59:31;;;;;;;16.13;4.70;;;;;;;10.62;88.32;102348.28;5020609;28;20048;-56
2022/10/07 06:01:59;;;;;;;16.52;4.82;;;;;;;10.57;88.28;102337.25;5030718;28;20045;-56
2022/10/07 06:04:28;;;;;;;16.73;5.05;;;;;;;10.57;88.58;102337.25;5029254;28;20077;-60
2022/10/07 06:06:56;;;;;;;13.57;4.13;;;;;;;10.56;88.37;102332.88;5001192;28;20100;-56
2022/10/07 06:15:05;;;;;;;15.32;4.30;;;;;;;10.66;88.75;102326.84;5028845;28;20041;-57
2022/10/07 06:17:33;;;;;;;14.35;4.15;;;;;;;10.69;88.47;102326.38;5005382;28;20572;-61
2022/10/07 06:20:04;;;;;;;13.90;4.28;;;;;;;10.71;88.16;102329.72;5025818;28;20133;-58
2022/10/07 06:22:32;;;;;;;14.48;4.65;;;;;;;10.75;88.13;102328.19;5030242;28;20052;-56
2022/10/07 06:25:01;;;;;;;12.43;4.53;;;;;;;10.77;88.29;102327.94;5029200;28;20044;-60
2022/10/07 06:27:31;;;;;;;13.73;4.63;;;;;;;10.78;87.90;102332.34;5025730;28;20043;-57
2022/10/07 06:29:59;;;;;;;16.63;4.63;;;;;;;10.79;87.34;102332.09;5016308;28;20048;-60
2022/10/07 06:32:29;;;;;;;14.32;4.50;;;;;;;10.77;87.31;102330.66;5039567;28;20124;-56
2022/10/07 06:34:57;;;;;;;16.75;5.50;;;;;;;10.76;87.98;102321.66;5031908;28;20042;-58
2022/10/07 06:37:25;;;;;;;16.35;5.28;;;;;;;10.78;87.99;102329.63;5031400;28;20045;-57
2022/10/07 06:39:53;;;;;;;15.57;4.65;;;;;;;10.78;87.38;102324.16;5012681;28;20567;-55
2022/10/07 06:42:27;;;;;;;18.17;4.30;;;;;;;10.78;87.94;102326.91;5028525;28;20045;-60
2022/10/07 06:45:13;;;;;;;;;;;;;;;10.79;87.93;102332.09;5026390;28;20373;-55
2022/10/07 06:47:41;;;;;;;15.15;4.10;;;;;;;10.78;87.65;102326.91;5022761;28;20023;-59
2022/10/07 06:50:09;;;;;;;18.17;4.65;;;;;;;10.80;88.28;102324.75;5013536;28;20041;-59
2022/10/07 06:52:38;;;;;;;12.95;3.88;;;;;;;10.80;87.78;102328.31;5012772;28;20038;-56
2022/10/07 06:55:10;;;;;;;11.70;3.92;;;;;;;10.79;88.02;102326.66;5011772;28;20042;-57
2022/10/07 06:57:40;;;;;;;15.70;4.43;;;;;;;10.80;87.94;102328.31;5015643;28;20037;-56
2022/10/07 07:00:15;;;;;;;15.38;4.20;;;;;;;10.81;88.20;102326.44;5033772;28;20115;-60
2022/10/07 07:02:44;;;;;;;16.70;4.20;;;;;;;10.82;88.48;102330.81;5032782;28;20080;-60
2022/10/07 07:05:14;;;;;;;15.65;4.18;;;;;;;10.84;88.54;102334.13;5031880;28;20038;-56
2022/10/07 07:07:43;;;;;;;13.18;4.15;;;;;;;10.85;88.44;102330.34;4999845;28;20072;-55
2022/10/07 07:10:12;;;;;;;11.63;4.28;;;;;;;10.87;89.15;102333.66;5034794;28;20523;-57
2022/10/07 07:12:43;;;;;;;13.30;4.25;;;;;;;10.88;88.90;102332.63;5021035;28;20084;-59
2022/10/07 07:15:11;;;;;;;13.75;4.03;;;;;;;10.87;89.64;102329.06;5024638;28;20049;-60
2022/10/07 07:17:40;;;;;;;14.52;4.13;;;;;;;10.90;89.41;102333.22;5029193;28;20067;-56
2022/10/07 07:20:09;;;;;;;12.43;3.67;;;;;;;10.94;89.85;102336.28;5035441;28;20056;-55
2022/10/07 07:22:38;;;;;;;14.45;4.75;;;;;;;10.97;89.94;102335.84;4999163;28;20046;-56
2022/10/07 07:25:08;;;;;;;13.85;4.32;;;;;;;11.01;89.50;102334.28;5017716;28;20057;-58
2022/10/07 07:27:37;;;;;;;13.80;4.05;;;;;;;11.02;89.76;102335.97;5040055;28;20045;-57
2022/10/07 07:30:07;;;;;;;11.07;3.85;;;;;;;11.02;89.47;102331.34;5040181;28;20067;-57
2022/10/07 07:32:36;;;;;;;12.85;3.70;;;;;;;11.04;90.08;102331.94;5031229;28;20069;-55
2022/10/07 07:35:06;;;;;;;16.70;4.28;;;;;;;11.06;90.25;102332.56;5039825;28;20040;-55
2022/10/07 07:37:35;;;;;;;15.90;4.35;;;;;;;11.08;90.61;102335.03;5021979;28;20073;-55
2022/10/07 07:40:03;;;;;;;11.55;3.70;;;;;;;11.10;90.48;102338.34;5006177;28;20046;-59
2022/10/07 07:42:33;;;;;;;14.27;4.43;;;;;;;11.14;90.51;102338.72;5026177;28;20092;-57
2022/10/07 07:45:01;;;;;;;12.15;4.35;;;;;;;11.16;90.18;102325.66;5012318;28;20050;-57
2022/10/07 07:47:32;;;;;;;14.32;3.80;;;;;;;11.18;90.98;102334.44;5011518;28;20061;-57
2022/10/07 07:50:02;;;;;;;14.27;4.45;;;;;;;11.20;90.77;102324.97;5026718;28;20038;-56
2022/10/07 07:52:32;;;;;;;15.35;4.03;;;;;;;11.21;90.29;102329.38;5031593;28;20045;-57
2022/10/07 07:55:02;;;;;;;11.63;3.67;;;;;;;11.25;91.04;102324.25;5039635;28;20124;-56
2022/10/07 07:57:31;;;;;;;13.05;3.80;;;;;;;11.30;92.07;102322.50;5024846;28;20061;-56
2022/10/07 08:00:04;;;;;;;15.60;4.32;;;;;;;11.36;92.39;102330.81;5035791;28;20037;-61
2022/10/07 08:02:40;;;;;;;10.88;3.75;;;;;;;11.37;91.36;102327.81;5034832;28;20086;-58
2022/10/07 08:05:13;;;;;;;13.68;4.45;;;;;;;11.49;94.63;102323.19;5023029;28;20069;-62
2022/10/07 08:07:41;;;;;;;16.88;4.63;;;;;;;11.54;95.15;102318.94;5023742;28;20065;-58
2022/10/07 08:10:10;;;;;;;11.60;3.58;;;;;;;11.50;93.39;102315.88;5030621;28;20115;-58
2022/10/07 08:12:39;;;;;;;13.65;3.92;;;;;;;11.55;93.81;102312.41;5023182;28;20120;-57
2022/10/07 08:15:09;;;;;;;13.32;3.40;;;;;;;11.60;95.28;102315.25;5018497;28;20091;-56
2022/10/07 08:17:38;;;;;;;9.88;3.60;;;;;;;11.64;96.53;102311.81;5031610;28;20037;-56
2022/10/07 08:20:09;;;;;;;13.45;4.60;;;;;;;11.65;95.56;102315.38;5033130;28;20045;-58
2022/10/07 08:22:37;;;;;;;14.82;4.25;;;;;;;11.66;93.82;102304.19;5035822;28;20518;-55
2022/10/07 08:25:06;;;;;;;12.15;4.13;;;;;;;11.67;94.44;102310.50;5016616;28;20034;-57
2022/10/07 08:27:35;;;;;;;9.93;3.88;;;;;;;11.72;95.47;102302.44;5034311;28;20496;-56
2022/10/07 08:30:03;;;;;;;18.27;5.20;;;;;;;11.77;95.60;102309.91;5035873;28;20045;-58
2022/10/07 08:32:31;;;;;;;13.93;4.15;;;;;;;11.77;94.59;102312.63;5036908;28;20044;-56
2022/10/07 08:34:58;;;;;;;18.52;4.68;;;;;;;11.77;94.08;102307.19;5031431;28;20122;-56
2022/10/07 08:37:26;;;;;;;21.05;5.18;;;;;;;11.75;93.37;102298.38;5032363;28;20107;-55
2022/10/07 08:39:54;;;;;;;15.07;4.18;;;;;;;11.73;94.02;102307.63;5035388;28;20380;-60
2022/10/07 08:42:34;;;;;;;18.75;5.30;;;;;;;11.75;93.52;102301.94;5036717;28;20112;-57
2022/10/07 08:45:01;;;;;;;14.85;4.38;;;;;;;11.78;94.17;102301.47;5034229;28;20046;-58
2022/10/07 08:47:33;;;;;;;11.00;3.97;;;;;;;11.85;94.08;102298.59;5027680;28;20045;-58
2022/10/07 08:50:25;;;;;;;17.92;4.65;;;;;;;11.89;93.35;102288.91;5024070;28;20373;-58
2022/10/07 08:52:57;;;;;;;16.52;4.43;;;;;;;11.95;95.26;102290.66;5030254;28;20100;-57
2022/10/07 08:55:41;;;;;;;13.10;4.20;;;;;;;12.08;96.73;102279.47;5032847;28;20054;-59
2022/10/07 08:58:29;;;;;;;18.38;5.07;;;;;;;12.10;95.61;102290.97;5024201;28;20034;-59
2022/10/07 09:01:20;;;;;;;18.25;4.50;;;;;;;12.13;95.29;102276.00;5018738;28;20064;-57
2022/10/07 09:04:09;;;;;;;17.27;4.35;;;;;;;12.13;93.44;102273.28;5019042;28;20097;-60
2022/10/07 09:06:44;;;;;;;13.15;3.53;;;;;;;12.18;93.31;102273.38;5028041;28;20568;-56
2022/10/07 09:09:24;;;;;;;14.02;4.20;;;;;;;12.30;93.22;102271.41;5016551;28;21696;-60
2022/10/07 09:11:52;;;;;;;14.15;4.15;;;;;;;12.34;94.19;102271.78;5036512;28;20042;-61
2022/10/07 09:14:36;;;;;;;14.27;4.30;;;;;;;12.48;97.19;102266.81;5022964;28;20067;-57
2022/10/07 09:17:19;;;;;;;14.68;4.20;;;;;;;12.48;93.64;102261.34;5031385;28;20419;-56
2022/10/07 09:19:49;;;;;;;10.45;3.65;;;;;;;12.57;95.71;102257.16;5028756;28;20045;-59
2022/10/07 09:22:18;;;;;;;15.05;4.50;;;;;;;12.64;97.53;102255.09;5045319;28;20091;-60
2022/10/07 09:24:48;;;;;;;14.38;4.07;;;;;;;12.69;96.13;102257.91;5040256;28;20049;-59
2022/10/07 09:27:21;;;;;;;12.68;3.75;;;;;;;12.61;92.59;102252.84;5023471;28;20084;-58
2022/10/07 09:29:50;;;;;;;12.77;3.90;;;;;;;12.60;91.57;102256.66;5031927;28;20042;-59
2022/10/07 09:32:18;;;;;;;12.40;3.60;;;;;;;12.61;90.26;102250.13;5037363;28;20120;-59
2022/10/07 09:34:46;;;;;;;15.77;3.90;;;;;;;12.71;94.29;102244.81;5041670;28;20522;-58
2022/10/07 09:37:23;;;;;;;13.45;4.50;;;;;;;12.84;96.45;102248.31;5043288;28;20124;-56
2022/10/07 09:39:53;;;;;;;12.65;4.20;;;;;;;12.84;93.20;102248.31;5032856;28;20116;-58
2022/10/07 09:42:34;;;;;;;13.43;4.35;;;;;;;12.92;94.94;102245.19;5025984;28;20038;-60
2022/10/07 09:45:18;;;;;;;13.27;4.35;;;;;;;13.00;96.94;102242.84;5028030;28;20072;-59
2022/10/07 09:47:51;;;;;;;14.57;4.05;;;;;;;12.97;91.85;102242.53;5021908;28;20167;-54
2022/10/07 09:50:32;;;;;;;13.20;3.78;;;;;;;12.96;90.60;102236.22;5022829;28;20096;-60
2022/10/07 09:53:01;;;;;;;13.70;3.90;;;;;;;12.89;87.35;102231.97;5017311;28;20532;-60
2022/10/07 09:55:36;;;;;;;17.55;4.13;;;;;;;12.86;86.84;102229.75;5013404;28;20045;-57
2022/10/07 09:58:15;;;;;;;16.00;4.20;;;;;;;12.86;86.83;102224.28;5030667;28;20041;-57
2022/10/07 10:00:46;;;;;;;13.43;4.43;;;;;;;12.88;88.31;102220.22;5028700;28;20045;-58
2022/10/07 10:03:14;;;;;;;17.48;5.25;;;;;;;12.99;88.29;102213.84;5030036;28;20072;-59
2022/10/07 10:06:02;;;;;;;16.77;4.18;;;;;;;13.04;86.53;102221.28;5023858;28;20045;-55
2022/10/07 10:08:35;;;;;;;19.42;4.45;;;;;;;13.06;86.34;102216.41;5019877;28;20053;-55
2022/10/07 10:11:24;;;;;;;13.50;3.60;;;;;;;13.10;86.38;102211.25;5027620;28;20508;-58
2022/10/07 10:13:52;;;;;;;13.38;4.03;;;;;;;13.10;86.34;102209.31;5015840;28;20056;-53
2022/10/07 10:16:33;;;;;;;17.80;4.72;;;;;;;13.12;86.75;102204.44;5025752;28;20044;-60
2022/10/07 10:19:03;;;;;;;17.25;4.57;;;;;;;13.16;87.12;102197.38;5025493;28;20045;-61
2022/10/07 10:21:41;;;;;;;16.52;3.85;;;;;;;13.20;86.14;102195.81;5034542;28;20072;-60
2022/10/07 10:24:14;;;;;;;16.98;4.18;;;;;;;13.24;86.02;102192.56;5032364;28;20041;-58
2022/10/07 10:26:55;;;;;;;12.27;3.83;;;;;;;13.27;85.45;102186.56;5033329;28;20518;-59
2022/10/07 10:29:36;;;;;;;24.98;8.95;;;;;;;13.28;85.82;102180.91;5022221;28;20041;-59
2022/10/07 10:32:22;;;;;;;78.00;35.20;;;;;;;13.45;88.59;102183.59;5035077;28;20048;-57
2022/10/07 10:34:59;;;;;;;118.93;55.38;;;;;;;13.55;86.60;102171.94;5034929;28;20033;-58
2022/10/07 10:37:46;;;;;;;106.35;48.45;;;;;;;13.57;86.49;102170.59;5019717;28;20037;-57
2022/10/07 10:40:36;;;;;;;19.27;5.68;;;;;;;13.56;83.21;102163.44;5034685;28;20120;-57
2022/10/07 10:43:10;;;;;;;13.70;3.80;;;;;;;13.56;82.45;102157.97;5042572;28;20037;-56
2022/10/07 10:45:59;;;;;;;16.88;4.43;;;;;;;13.59;82.66;102152.00;5028852;28;20393;-56
2022/10/07 10:48:36;;;;;;;22.75;4.53;;;;;;;13.63;82.08;102155.84;5018873;28;20118;-60
2022/10/07 10:51:30;;;;;;;12.60;3.42;;;;;;;13.67;79.89;102150.72;5032786;28;20468;-61
2022/10/07 10:54:09;;;;;;;20.25;6.93;;;;;;;13.70;79.69;102155.66;5017944;28;20045;-60
2022/10/07 10:56:40;;;;;;;39.22;16.77;;;;;;;13.78;81.50;102147.00;5048399;28;20056;-58
2022/10/07 10:59:29;;;;;;;67.35;30.10;;;;;;;13.84;82.53;102140.47;5032298;28;20044;-59
2022/10/07 11:02:43;;;;;;;35.53;14.27;;;;;;;13.85;81.25;102133.94;5033587;28;20404;-56
2022/10/07 11:05:44;;;;;;;55.60;26.60;;;;;;;13.91;82.97;102126.59;4338605;28;10000709;-57
2022/10/07 11:08:24;;;;;;;110.47;53.45;;;;;;;13.99;86.05;102128.84;5016087;28;20423;-59
2022/10/07 11:11:00;;;;;;;130.57;58.53;;;;;;;14.02;84.56;102133.84;5029311;28;20063;-56
2022/10/07 11:13:34;;;;;;;21.45;6.85;;;;;;;13.96;77.39;102123.91;5041820;28;20065;-60
2022/10/07 11:16:35;;;;;;;106.35;49.90;;;;;;;14.02;84.11;102122.88;5032028;28;20045;-59
2022/10/07 11:19:09;;;;;;;25.30;9.68;;;;;;;14.02;79.15;102117.41;5051053;28;20058;-59
2022/10/07 11:21:43;;;;;;;37.95;16.35;;;;;;;14.03;80.02;102119.03;5031374;28;20041;-59
2022/10/07 11:24:26;;;;;;;45.58;19.60;;;;;;;14.12;82.88;102116.66;5034060;28;20046;-59
2022/10/07 11:26:57;;;;;;;54.15;24.77;;;;;;;14.18;80.54;102109.31;5025893;28;20125;-60
2022/10/07 11:29:52;;;;;;;69.95;31.83;;;;;;;14.24;82.31;102102.78;5036477;28;20033;-59
2022/10/07 11:32:23;;;;;;;19.38;5.55;;;;;;;14.25;76.91;102096.19;5033649;28;20041;-54
2022/10/07 11:35:07;;;;;;;52.08;23.30;;;;;;;14.30;77.97;102087.19;5030402;28;20072;-55
2022/10/07 11:37:46;;;;;;;36.90;17.20;;;;;;;14.31;76.86;102078.72;5033633;28;20121;-55
2022/10/07 11:40:15;;;;;;;14.60;3.17;;;;;;;14.28;74.64;102071.00;5015777;28;20033;-58
2022/10/07 11:42:46;;;;;;;17.20;4.22;;;;;;;14.30;74.16;102068.81;5048689;28;20119;-57
2022/10/07 11:45:20;;;;;;;15.63;3.60;;;;;;;14.29;73.90;102058.97;5034099;28;20038;-58
2022/10/07 11:47:55;;;;;;;14.38;3.92;;;;;;;14.31;74.56;102048.56;5021835;28;20041;-58
2022/10/07 11:50:30;;;;;;;27.70;10.43;;;;;;;14.40;77.24;102046.97;5033494;28;20480;-57